^^
Datos históricos de la estación: Murcia-Puente Tocinos
Diario Informe para Diciembre 18, 2019 Unidades:  Métrico    Ingés   Ambas
Diario Semanal Mensual Anual
  Máxima: Mínima: Promedio:
Temperatura: 17.3 °C 9.8 °C 13.2 °C
Punto de rocio: 7.1 °C 0.8 °C 4.7 °C
Humedad: 79% 33.6% 58%
Velocidad viento: 19.8km/h 2.2km/h 9.6km/h
Racha viento: 42.6km/h - -
Viento- - SO
Presión: 1019.0 hPa 1012.4 hPa -
Precipitación: 0.0 mm    
 
 
Tabla de datos para Diciembre 18, 2019
Hora Temperatura Punto de rocio Presión Viento Velocidad viento Racha viento Humedad Intensidad lluvia(por hora) Nubes
00:04 14.8 °C 6.9 °C 1012.6 hPa OSO 10.3 km/h 24.1 km/h 59% 0.0 mm
00:09 14.9 °C 6.9 °C 1012.6 hPa OSO 10.3 km/h 24.1 km/h 58.7% 0.0 mm
00:14 14.9 °C 6.7 °C 1012.6 hPa OSO 10.3 km/h 22.5 km/h 58% 0.0 mm
00:19 14.8 °C 6.8 °C 1012.6 hPa SO 10.3 km/h 18.5 km/h 58.5% 0.0 mm
00:24 14.8 °C 6.8 °C 1012.6 hPa SO 10.1 km/h 20.1 km/h 59% 0.0 mm
00:29 14.6 °C 6.7 °C 1012.4 hPa OSO 10 km/h 22.2 km/h 59% 0.0 mm
00:34 14.5 °C 6.6 °C 1012.4 hPa SO 11 km/h 22.5 km/h 59% 0.0 mm
00:39 14.4 °C 6.7 °C 1012.4 hPa OSO 11.9 km/h 20.9 km/h 59.8% 0.0 mm
00:44 14.4 °C 6.7 °C 1012.4 hPa OSO 10.7 km/h 19.3 km/h 60% 0.0 mm
00:49 14.3 °C 6.6 °C 1012.4 hPa OSO 9.5 km/h 18.5 km/h 60% 0.0 mm
00:54 14.3 °C 6.6 °C 1012.5 hPa SO 9.5 km/h 20.4 km/h 60% 0.0 mm
00:59 14.2 °C 6.6 °C 1012.5 hPa SSO 9.5 km/h 20.9 km/h 60% 0.0 mm
01:04 14.2 °C 6.6 °C 1012.5 hPa OSO 8.1 km/h 14.5 km/h 60% 0.0 mm
01:09 14.2 °C 6.5 °C 1012.7 hPa Sur 6.9 km/h 9.7 km/h 60% 0.0 mm
01:14 14.1 °C 6.6 °C 1012.7 hPa SE 6 km/h 8.7 km/h 60.8% 0.0 mm
01:19 13.9 °C 6.5 °C 1012.7 hPa ENE 5 km/h 9.7 km/h 61% 0.0 mm
01:24 13.8 °C 6.6 °C 1012.9 hPa ESE 4.4 km/h 9.7 km/h 61.9% 0.0 mm
01:29 13.6 °C 6.6 °C 1012.9 hPa ESE 3.9 km/h 9.7 km/h 62.7% 0.0 mm
01:34 13.4 °C 6.6 °C 1012.9 hPa ESE 3.5 km/h 6.4 km/h 63% 0.0 mm
01:39 13.4 °C 6.5 °C 1013.1 hPa SSE 3.2 km/h 8.4 km/h 63% 0.0 mm
01:44 13.4 °C 6.5 °C 1013.1 hPa SO 4 km/h 13.7 km/h 63% 0.0 mm
01:49 13.6 °C 6.4 °C 1013.1 hPa SO 4.7 km/h 14.8 km/h 62% 0.0 mm
01:54 13.6 °C 6.4 °C 1013.2 hPa OSO 6.1 km/h 14.5 km/h 62% 0.0 mm
01:59 13.6 °C 6.4 °C 1013.2 hPa OSO 7.6 km/h 12.9 km/h 62% 0.0 mm
02:04 13.4 °C 6.3 °C 1013.2 hPa OSO 7 km/h 11.1 km/h 62% 0.0 mm
02:09 13.4 °C 6.3 °C 1013.5 hPa OSO 6.5 km/h 11.3 km/h 62.2% 0.0 mm
02:14 13.3 °C 6.4 °C 1013.5 hPa OSO 6.1 km/h 15.6 km/h 63% 0.0 mm
02:19 13.3 °C 6.4 °C 1013.5 hPa OSO 5.8 km/h 16.1 km/h 63% 0.0 mm
02:24 13.3 °C 6.4 °C 1013.6 hPa Oeste 6.3 km/h 18.5 km/h 62.8% 0.0 mm
02:29 13.2 °C 6.3 °C 1013.6 hPa Oeste 6.9 km/h 19.3 km/h 63% 0.0 mm
02:34 13.1 °C 6.2 °C 1013.6 hPa Oeste 7.7 km/h 13.7 km/h 63% 0.0 mm
02:39 13.1 °C 6.2 °C 1013.7 hPa OSO 8.4 km/h 16.7 km/h 63% 0.0 mm
02:44 12.9 °C 6 °C 1013.7 hPa OSO 7.9 km/h 16.7 km/h 63% 0.0 mm
02:49 12.9 °C 6 °C 1013.7 hPa Oeste 7.6 km/h 16.7 km/h 63% 0.0 mm
02:54 12.9 °C 6 °C 1013.8 hPa Oeste 8.2 km/h 16.7 km/h 63% 0.0 mm
02:59 12.8 °C 6 °C 1013.8 hPa ONO 8.7 km/h 18.5 km/h 63% 0.0 mm
03:04 12.9 °C 6 °C 1013.8 hPa Oeste 9.1 km/h 19.3 km/h 63% 0.0 mm
03:09 12.8 °C 6 °C 1014.1 hPa Oeste 9.5 km/h 16.1 km/h 63% 0.0 mm
03:14 12.8 °C 5.9 °C 1014.1 hPa Oeste 8.5 km/h 12.9 km/h 63% 0.0 mm
03:19 12.8 °C 5.9 °C 1014.1 hPa OSO 7.6 km/h 10 km/h 63% 0.0 mm
03:24 12.8 °C 5.9 °C 1014.2 hPa Oeste 6.3 km/h 9.7 km/h 63% 0.0 mm
03:29 12.7 °C 5.8 °C 1014.2 hPa OSO 5 km/h 11.1 km/h 63% 0.0 mm
03:34 12.7 °C 5.8 °C 1014.2 hPa SO 5 km/h 11.3 km/h 63% 0.0 mm
03:39 12.7 °C 5.8 °C 1014.2 hPa OSO 5 km/h 13 km/h 63% 0.0 mm
03:44 12.7 °C 5.8 °C 1014.2 hPa SO 6 km/h 14.8 km/h 63% 0.0 mm
03:49 12.7 °C 5.8 °C 1014.2 hPa SO 6.9 km/h 14.5 km/h 63.2% 0.0 mm
03:54 12.5 °C 5.9 °C 1014.4 hPa SO 6.9 km/h 13 km/h 64% 0.0 mm
03:59 12.4 °C 5.7 °C 1014.4 hPa SO 6.9 km/h 13.7 km/h 64% 0.0 mm
04:04 12.3 °C 5.7 °C 1014.4 hPa SO 7.9 km/h 19 km/h 64% 0.0 mm
04:09 12.3 °C 5.7 °C 1014.4 hPa SO 8.7 km/h 19.3 km/h 64% 0.0 mm
04:14 12.3 °C 5.7 °C 1014.4 hPa SO 9.1 km/h 16.1 km/h 64% 0.0 mm
04:19 12.2 °C 5.7 °C 1014.4 hPa SO 9.5 km/h 15.6 km/h 64.4% 0.0 mm
04:24 12.2 °C 5.6 °C 1014.5 hPa SO 9.1 km/h 16.1 km/h 64% 0.0 mm
04:29 12.1 °C 5.7 °C 1014.5 hPa SO 8.7 km/h 13.7 km/h 64.8% 0.0 mm
04:34 12.1 °C 5.7 °C 1014.5 hPa SSO 8.5 km/h 14.5 km/h 65% 0.0 mm
04:39 12 °C 5.6 °C 1014.7 hPa SO 8.4 km/h 16.7 km/h 65% 0.0 mm
04:44 12 °C 5.6 °C 1014.7 hPa SO 8.4 km/h 16.1 km/h 65% 0.0 mm
04:49 11.9 °C 5.5 °C 1014.7 hPa SO 8.4 km/h 14.5 km/h 65% 0.0 mm
04:54 11.9 °C 5.4 °C 1014.8 hPa SO 8.4 km/h 13 km/h 64.5% 0.0 mm
04:59 11.9 °C 5.3 °C 1014.8 hPa SO 8.4 km/h 18.5 km/h 64% 0.0 mm
05:04 11.9 °C 5.4 °C 1014.8 hPa SO 8.4 km/h 19.3 km/h 64.4% 0.0 mm
05:09 11.8 °C 5.4 °C 1014.9 hPa SSO 8.4 km/h 18.3 km/h 65% 0.0 mm
05:14 11.8 °C 5.4 °C 1014.9 hPa SO 8.5 km/h 17.7 km/h 64.7% 0.0 mm
05:19 11.8 °C 5.2 °C 1014.9 hPa SO 8.7 km/h 17.7 km/h 64% 0.0 mm
05:24 11.8 °C 5.2 °C 1015.1 hPa SO 8.7 km/h 18 km/h 64% 0.0 mm
05:29 11.8 °C 5.2 °C 1015.1 hPa SO 8.7 km/h 19.3 km/h 64% 0.0 mm
05:34 11.8 °C 5.2 °C 1015.1 hPa SO 8.7 km/h 20.1 km/h 64% 0.0 mm
05:39 11.8 °C 5.1 °C 1015.2 hPa OSO 8.7 km/h 20.9 km/h 63.3% 0.0 mm
05:44 11.8 °C 5 °C 1015.2 hPa SO 9.3 km/h 20.9 km/h 63% 0.0 mm
05:49 11.8 °C 5 °C 1015.2 hPa SO 10 km/h 20.9 km/h 63% 0.0 mm
05:54 11.8 °C 5 °C 1015.2 hPa SSO 9.1 km/h 13 km/h 63% 0.0 mm
05:59 11.7 °C 4.9 °C 1015.2 hPa SSO 8.4 km/h 13.7 km/h 63% 0.0 mm
06:04 11.7 °C 5 °C 1015.2 hPa Sur 7.6 km/h 14.8 km/h 63.6% 0.0 mm
06:09 11.5 °C 5 °C 1015.4 hPa Sur 6.9 km/h 14.5 km/h 64.5% 0.0 mm
06:14 11.3 °C 5 °C 1015.4 hPa Sur 6.4 km/h 10 km/h 65.2% 0.0 mm
06:19 11.2 °C 5 °C 1015.4 hPa Sur 5.8 km/h 10 km/h 66% 0.0 mm
06:24 10.9 °C 5 °C 1015.8 hPa Sur 6.3 km/h 11.9 km/h 66.7% 0.0 mm
06:29 10.8 °C 5 °C 1015.8 hPa Sur 6.9 km/h 14.8 km/h 67.5% 0.0 mm
06:34 10.6 °C 5 °C 1015.8 hPa SSO 7.8 km/h 14.8 km/h 68% 0.0 mm
06:39 10.6 °C 4.9 °C 1015.8 hPa SSO 8.7 km/h 14.8 km/h 68% 0.0 mm
06:44 10.6 °C 4.9 °C 1015.8 hPa SSO 9.1 km/h 14.8 km/h 68% 0.0 mm
06:49 10.7 °C 5.1 °C 1015.8 hPa SSO 9.5 km/h 16.7 km/h 68% 0.0 mm
06:54 10.7 °C 5.1 °C 1016.0 hPa SSO 9.9 km/h 16.7 km/h 68% 0.0 mm
06:59 10.7 °C 4.9 °C 1016.0 hPa SSO 10.3 km/h 16.7 km/h 67.3% 0.0 mm
07:04 10.7 °C 4.9 °C 1016.0 hPa SO 10.3 km/h 20.1 km/h 67% 0.0 mm
07:09 10.8 °C 4.9 °C 1016.1 hPa SO 10.3 km/h 20.9 km/h 67% 0.0 mm
07:14 10.8 °C 4.9 °C 1016.1 hPa SSO 9.5 km/h 16.7 km/h 67% 0.0 mm
07:19 10.8 °C 4.9 °C 1016.1 hPa SSO 8.7 km/h 16.7 km/h 67% 0.0 mm
07:24 10.8 °C 4.9 °C 1016.3 hPa SSO 9.5 km/h 16.7 km/h 67% 0.0 mm
07:29 10.7 °C 4.8 °C 1016.3 hPa SSO 10.3 km/h 16.4 km/h 67% 0.0 mm
07:34 10.8 °C 4.9 °C 1016.3 hPa SSO 10.3 km/h 16.7 km/h 67% 0.0 mm
07:39 10.8 °C 4.7 °C 1016.5 hPa SSO 10.3 km/h 16.1 km/h 66% 0.0 mm
07:44 10.8 °C 4.7 °C 1016.5 hPa Sur 10.2 km/h 14.8 km/h 66.2% 0.0 mm
07:49 10.5 °C 4.7 °C 1016.5 hPa SSO 10 km/h 20.4 km/h 67.5% 0.0 mm
07:54 10.2 °C 4.7 °C 1016.7 hPa SSO 10.9 km/h 20.9 km/h 68.8% 0.0 mm
07:59 9.9 °C 4.6 °C 1016.7 hPa SSO 11.9 km/h 19.3 km/h 69.6% 0.0 mm
08:04 9.9 °C 4.7 °C 1016.7 hPa SSO 11 km/h 19.3 km/h 70% 0.0 mm
08:09 9.9 °C 4.7 °C 1016.9 hPa SSO 10.3 km/h 20.4 km/h 70% 0.0 mm
08:14 10 °C 4.6 °C 1016.9 hPa SSO 11.3 km/h 22.2 km/h 69.2% 0.0 mm
08:19 10.1 °C 4.7 °C 1016.9 hPa SO 12.2 km/h 22.5 km/h 69% 0.0 mm
08:24 10.2 °C 4.6 °C 1017.0 hPa SSO 12.2 km/h 19.8 km/h 68% 0.0 mm
08:29 10.2 °C 4.7 °C 1017.0 hPa SSO 12.2 km/h 20.9 km/h 68.7% 0.0 mm
08:34 10.2 °C 4.5 °C 1017.0 hPa SSO 11.7 km/h 19.3 km/h 68% 0.0 mm
08:39 10.2 °C 4.6 °C 1017.0 hPa SSO 11.1 km/h 19.3 km/h 68% 0.0 mm
08:44 10.2 °C 4.6 °C 1017.0 hPa SSO 11.5 km/h 18.3 km/h 68% 0.0 mm
08:49 10.2 °C 4.6 °C 1017.0 hPa SSO 11.9 km/h 24.1 km/h 68% 0.0 mm
08:54 10.3 °C 4.7 °C 1017.0 hPa SO 11.5 km/h 24.1 km/h 68% 0.0 mm
08:59 10.4 °C 4.6 °C 1016.9 hPa SSO 11.1 km/h 20.9 km/h 67.4% 0.0 mm
09:04 10.5 °C 4.6 °C 1016.9 hPa SSO 11.7 km/h 22.2 km/h 67% 0.0 mm
09:09 10.6 °C 4.7 °C 1017.1 hPa SSO 12.2 km/h 22.5 km/h 66.9% 0.0 mm
09:14 10.7 °C 4.6 °C 1017.1 hPa SSO 12.2 km/h 20.9 km/h 66% 0.0 mm
09:19 10.7 °C 4.6 °C 1017.1 hPa SSO 12.2 km/h 22.5 km/h 66% 0.0 mm
09:24 10.7 °C 4.6 °C 1017.2 hPa SSO 12.2 km/h 25.9 km/h 66% 0.0 mm
09:29 10.7 °C 4.6 °C 1017.2 hPa SO 12.2 km/h 25.7 km/h 66% 0.0 mm
09:34 10.7 °C 4.6 °C 1017.2 hPa SSO 11.7 km/h 24.1 km/h 66% 0.0 mm
09:39 10.7 °C 4.7 °C 1017.5 hPa SO 11.1 km/h 24.5 km/h 66% 0.0 mm
09:44 10.8 °C 4.5 °C 1017.5 hPa SO 12.1 km/h 24.1 km/h 65.1% 0.0 mm
09:49 10.9 °C 4.6 °C 1017.5 hPa SO 13 km/h 22.5 km/h 65% 0.0 mm
09:54 11 °C 4.5 °C 1017.9 hPa SSO 12.5 km/h 19.3 km/h 64.3% 0.0 mm
09:59 11.2 °C 4.6 °C 1017.9 hPa SSO 11.9 km/h 19.3 km/h 64% 0.0 mm
10:04 11.3 °C 4.5 °C 1017.9 hPa SSO 11 km/h 20.4 km/h 62.7% 0.0 mm
10:09 11.6 °C 4.5 °C 1017.9 hPa SSO 10.3 km/h 22.5 km/h 61.9% 0.0 mm
10:14 11.7 °C 4.5 °C 1017.9 hPa SO 11.1 km/h 22.5 km/h 61% 0.0 mm
10:19 11.9 °C 4.6 °C 1017.9 hPa SO 11.9 km/h 22.5 km/h 61% 0.0 mm
10:24 12 °C 4.6 °C 1017.9 hPa SO 11.1 km/h 22.5 km/h 60.5% 0.0 mm
10:29 12.2 °C 4.6 °C 1017.9 hPa OSO 10.3 km/h 20.9 km/h 60% 0.0 mm
10:34 12.3 °C 4.6 °C 1017.9 hPa SO 10.3 km/h 24.1 km/h 59.4% 0.0 mm
10:39 12.5 °C 4.5 °C 1018.0 hPa SO 10.3 km/h 27.8 km/h 58.3% 0.0 mm
10:44 12.7 °C 4.4 °C 1018.0 hPa OSO 13.9 km/h 33.3 km/h 57.4% 0.0 mm
10:49 12.8 °C 4.4 °C 1018.0 hPa OSO 17.2 km/h 33.8 km/h 56.8% 0.0 mm
10:54 12.9 °C 4.3 °C 1018.2 hPa SO 18.5 km/h 33.8 km/h 56% 0.0 mm
10:59 12.9 °C 4.5 °C 1018.2 hPa SO 19.8 km/h 30.6 km/h 56.5% 0.0 mm
11:04 13 °C 4.6 °C 1018.2 hPa SSO 17.5 km/h 25.9 km/h 56.5% 0.0 mm
11:09 13.1 °C 4.5 °C 1018.3 hPa SO 15.6 km/h 26.2 km/h 56% 0.0 mm
11:14 13.3 °C 4.6 °C 1018.3 hPa SO 15.2 km/h 25.9 km/h 55.8% 0.0 mm
11:19 13.4 °C 4.4 °C 1018.3 hPa SO 14.8 km/h 25.9 km/h 54.4% 0.0 mm
11:24 13.6 °C 4.3 °C 1018.3 hPa SO 14.2 km/h 25.9 km/h 53.5% 0.0 mm
11:29 13.7 °C 4.3 °C 1018.3 hPa SO 13.7 km/h 25.7 km/h 53% 0.0 mm
11:34 13.9 °C 4.4 °C 1018.3 hPa SO 12.9 km/h 24.1 km/h 52.5% 0.0 mm
11:39 14.1 °C 4.2 °C 1018.3 hPa OSO 12.2 km/h 24.1 km/h 51.3% 0.0 mm
11:44 14.3 °C 4.3 °C 1018.3 hPa SO 13.1 km/h 24.1 km/h 51% 0.0 mm
11:49 14.4 °C 4.3 °C 1018.3 hPa OSO 14 km/h 22.5 km/h 50.8% 0.0 mm
11:54 14.5 °C 4.2 °C 1018.3 hPa OSO 13.5 km/h 27.8 km/h 50.1% 0.0 mm
11:59 14.6 °C 4.2 °C 1018.1 hPa OSO 13 km/h 27.4 km/h 49.8% 0.0 mm
12:04 14.7 °C 4 °C 1018.1 hPa OSO 14.7 km/h 31.5 km/h 48.7% 0.0 mm
12:09 14.7 °C 3.8 °C 1018.1 hPa Oeste 16.1 km/h 32.2 km/h 48% 0.0 mm
12:14 14.8 °C 3.9 °C 1018.0 hPa Oeste 17.6 km/h 30.6 km/h 48.1% 0.0 mm
12:19 14.9 °C 3.9 °C 1018.0 hPa Oeste 19 km/h 29 km/h 47.7% 0.0 mm
12:24 15 °C 3.9 °C 1018.0 hPa Oeste 17.3 km/h 34.6 km/h 47.5% 0.0 mm
12:29 14.9 °C 3.8 °C 1017.9 hPa OSO 15.6 km/h 35.4 km/h 47.1% 0.0 mm
12:34 15.1 °C 3.8 °C 1017.9 hPa Oeste 16.8 km/h 35.9 km/h 47% 0.0 mm
12:39 15 °C 3.9 °C 1017.9 hPa Oeste 18 km/h 35.4 km/h 47.4% 0.0 mm
12:44 15.2 °C 4 °C 1017.7 hPa Oeste 18 km/h 33.8 km/h 47.2% 0.0 mm
12:49 15.2 °C 3.9 °C 1017.7 hPa OSO 18 km/h 33.3 km/h 47% 0.0 mm
12:54 15.2 °C 4.1 °C 1017.7 hPa Oeste 17.7 km/h 33.8 km/h 47.5% 0.0 mm
12:59 15.2 °C 4.1 °C 1017.6 hPa Oeste 17.2 km/h 35.9 km/h 47.5% 0.0 mm
13:04 15.3 °C 4.1 °C 1017.6 hPa Oeste 17.2 km/h 35.4 km/h 47.4% 0.0 mm
13:09 15.3 °C 4.1 °C 1017.6 hPa OSO 17.2 km/h 33.5 km/h 47.3% 0.0 mm
13:14 15.3 °C 4.1 °C 1017.5 hPa Oeste 17.6 km/h 33.8 km/h 47.2% 0.0 mm
13:19 15.4 °C 4.1 °C 1017.5 hPa Oeste 18 km/h 33.8 km/h 47% 0.0 mm
13:24 15.6 °C 4.3 °C 1017.5 hPa Oeste 16.8 km/h 30.6 km/h 47% 0.0 mm
13:29 15.6 °C 4.2 °C 1017.2 hPa Oeste 15.6 km/h 33.3 km/h 46.7% 0.0 mm
13:34 15.7 °C 4 °C 1017.2 hPa Oeste 16.9 km/h 33.8 km/h 46% 0.0 mm
13:39 15.7 °C 4.1 °C 1017.3 hPa Oeste 18 km/h 33.8 km/h 46% 0.0 mm
13:44 15.8 °C 4.1 °C 1017.3 hPa OSO 17.6 km/h 34.3 km/h 45.7% 0.0 mm
13:49 15.9 °C 4.1 °C 1017.3 hPa Oeste 17.2 km/h 33.8 km/h 45.3% 0.0 mm
13:54 16 °C 4.1 °C 1017.3 hPa ONO 16.8 km/h 42 km/h 45% 0.0 mm
13:59 16.1 °C 4.1 °C 1017.1 hPa Oeste 16.4 km/h 42.6 km/h 45% 0.0 mm
14:04 16.1 °C 3.9 °C 1017.1 hPa Oeste 17.8 km/h 35.2 km/h 44.3% 0.0 mm
14:09 16.1 °C 3.8 °C 1017.1 hPa Oeste 19 km/h 35.4 km/h 44% 0.0 mm
14:14 16.2 °C 3.9 °C 1016.8 hPa OSO 19.4 km/h 33.8 km/h 44% 0.0 mm
14:19 16.2 °C 4 °C 1016.8 hPa Oeste 19.8 km/h 28.2 km/h 44% 0.0 mm
14:24 16.2 °C 3.9 °C 1016.8 hPa OSO 17.9 km/h 27.4 km/h 44% 0.0 mm
14:29 16.2 °C 3.9 °C 1016.8 hPa OSO 16.1 km/h 25.7 km/h 43.8% 0.0 mm
14:34 16.3 °C 3.8 °C 1016.8 hPa Oeste 13.5 km/h 25.9 km/h 43.4% 0.0 mm
14:39 16.3 °C 3.9 °C 1016.8 hPa OSO 11.1 km/h 25.9 km/h 43.5% 0.0 mm
14:44 16.5 °C 3.6 °C 1016.6 hPa OSO 12 km/h 29.6 km/h 42.3% 0.0 mm
14:49 16.5 °C 3.6 °C 1016.6 hPa OSO 13 km/h 29 km/h 42% 0.0 mm
14:54 16.6 °C 3.4 °C 1016.6 hPa OSO 13.4 km/h 24.1 km/h 41.3% 0.0 mm
14:59 16.7 °C 3.5 °C 1016.6 hPa Oeste 13.7 km/h 22.5 km/h 41.4% 0.0 mm
15:04 16.7 °C 3.1 °C 1016.6 hPa Oeste 12.9 km/h 22.5 km/h 40.4% 0.0 mm
15:09 16.7 °C 3 °C 1016.6 hPa Oeste 12.2 km/h 27.8 km/h 40% 0.0 mm
15:14 16.7 °C 2.6 °C 1016.6 hPa ONO 14 km/h 27.8 km/h 38.9% 0.0 mm
15:19 16.7 °C 2.6 °C 1016.6 hPa Oeste 15.6 km/h 27.4 km/h 38.9% 0.0 mm
15:24 16.8 °C 2.8 °C 1016.6 hPa OSO 14.3 km/h 24.1 km/h 39% 0.0 mm
15:29 16.9 °C 2.7 °C 1016.4 hPa OSO 13 km/h 19.3 km/h 38.6% 0.0 mm
15:34 16.9 °C 2.5 °C 1016.4 hPa OSO 11.6 km/h 19.3 km/h 38% 0.0 mm
15:39 16.9 °C 2.4 °C 1016.5 hPa Oeste 10.3 km/h 20.4 km/h 37.8% 0.0 mm
15:44 16.8 °C 2.1 °C 1016.5 hPa ONO 10.7 km/h 20.9 km/h 37% 0.0 mm
15:49 16.8 °C 2 °C 1016.5 hPa Oeste 11.1 km/h 19.3 km/h 37% 0.0 mm
15:54 16.9 °C 1.9 °C 1016.6 hPa Oeste 11.1 km/h 24.5 km/h 36.4% 0.0 mm
15:59 16.9 °C 2 °C 1016.6 hPa Oeste 11.1 km/h 24.1 km/h 36.6% 0.0 mm
16:04 16.9 °C 1.9 °C 1016.6 hPa Oeste 11.5 km/h 24.1 km/h 36.5% 0.0 mm
16:09 16.9 °C 1.8 °C 1016.7 hPa ONO 11.9 km/h 16.1 km/h 36.2% 0.0 mm
16:14 16.9 °C 1.7 °C 1016.7 hPa ONO 10.9 km/h 18.5 km/h 36% 0.0 mm
16:19 16.9 °C 1.7 °C 1016.7 hPa Oeste 10 km/h 19.3 km/h 36% 0.0 mm
16:24 16.9 °C 1.3 °C 1016.7 hPa Oeste 9.7 km/h 14.5 km/h 35% 0.0 mm
16:29 17 °C 1.4 °C 1016.7 hPa ONO 9.5 km/h 14.8 km/h 35% 0.0 mm
16:34 17 °C 1.4 °C 1016.7 hPa ONO 8.2 km/h 14.5 km/h 35% 0.0 mm
16:39 17.1 °C 1.7 °C 1016.8 hPa ONO 6.9 km/h 9.7 km/h 35.5% 0.0 mm
16:44 17.3 °C 1.6 °C 1016.8 hPa SO 6 km/h 11.9 km/h 35% 0.0 mm
16:49 17.3 °C 1.4 °C 1016.8 hPa OSO 5 km/h 11.3 km/h 34.3% 0.0 mm
16:54 17.3 °C 1.1 °C 1016.9 hPa SO 5.4 km/h 11.3 km/h 33.6% 0.0 mm
16:59 17.3 °C 1.2 °C 1016.9 hPa OSO 5.8 km/h 11.3 km/h 33.8% 0.0 mm
17:04 17.3 °C 1.3 °C 1016.9 hPa OSO 5.3 km/h 9.5 km/h 34% 0.0 mm
17:09 17.3 °C 1.3 °C 1017.0 hPa Oeste 5 km/h 9.7 km/h 34% 0.0 mm
17:14 17.3 °C 1.3 °C 1017.0 hPa Oeste 5 km/h 9.7 km/h 34% 0.0 mm
17:19 17.3 °C 1.3 °C 1017.0 hPa OSO 5 km/h 8.4 km/h 34.2% 0.0 mm
17:24 17.2 °C 1.3 °C 1017.1 hPa OSO 4.4 km/h 8.4 km/h 34.4% 0.0 mm
17:29 16.9 °C 1 °C 1017.1 hPa OSO 3.9 km/h 9.3 km/h 34% 0.0 mm
17:34 16.8 °C 1.2 °C 1017.1 hPa OSO 4.3 km/h 9.7 km/h 34.9% 0.0 mm
17:39 16.7 °C 1 °C 1017.1 hPa OSO 4.6 km/h 8 km/h 34.6% 0.0 mm
17:44 16.6 °C 1 °C 1017.1 hPa OSO 4.2 km/h 8 km/h 35% 0.0 mm
17:49 16.4 °C 0.9 °C 1017.1 hPa OSO 3.9 km/h 5.6 km/h 35.1% 0.0 mm
17:54 16.3 °C 0.8 °C 1017.1 hPa OSO 3 km/h 4.8 km/h 35% 0.0 mm
17:59 16.3 °C 0.8 °C 1017.1 hPa SO 2.2 km/h 7.6 km/h 35.2% 0.0 mm
18:04 16.1 °C 2 °C 1017.1 hPa SE 3.1 km/h 10.3 km/h 38.9% 0.0 mm
18:09 15.6 °C 2.5 °C 1017.3 hPa SSE 3.9 km/h 11.3 km/h 41.4% 0.0 mm
18:14 15.2 °C 2.7 °C 1017.3 hPa SE 4.8 km/h 9.7 km/h 42.8% 0.0 mm
18:19 14.8 °C 2.6 °C 1017.3 hPa SE 5.8 km/h 10 km/h 44% 0.0 mm
18:24 14.4 °C 2.7 °C 1017.3 hPa SE 6.3 km/h 9.7 km/h 45.5% 0.0 mm
18:29 14.1 °C 2.9 °C 1017.3 hPa SE 6.9 km/h 10 km/h 46.6% 0.0 mm
18:34 13.9 °C 2.8 °C 1017.3 hPa SE 6.7 km/h 10 km/h 47% 0.0 mm
18:39 13.7 °C 2.9 °C 1017.5 hPa SSE 6.5 km/h 9.7 km/h 47.8% 0.0 mm
18:44 13.7 °C 2.8 °C 1017.5 hPa SE 6.5 km/h 9.7 km/h 48% 0.0 mm
18:49 13.6 °C 2.8 °C 1017.5 hPa SE 6.5 km/h 9.7 km/h 48.2% 0.0 mm
18:54 13.4 °C 2.9 °C 1017.5 hPa SE 6.5 km/h 9.7 km/h 49% 0.0 mm
18:59 13.3 °C 3 °C 1017.4 hPa SSE 6.5 km/h 9.7 km/h 49.6% 0.0 mm
19:04 13.2 °C 3 °C 1017.4 hPa SSE 6.1 km/h 9.7 km/h 50% 0.0 mm
19:09 13.2 °C 3.1 °C 1017.7 hPa SSE 5.8 km/h 8.4 km/h 50.6% 0.0 mm
19:14 13 °C 3.2 °C 1017.7 hPa Sur 5.4 km/h 13 km/h 51.3% 0.0 mm
19:19 12.9 °C 3.2 °C 1017.7 hPa SSO 5 km/h 12.9 km/h 51.8% 0.0 mm
19:24 12.9 °C 3.6 °C 1018.0 hPa SSO 6 km/h 16.7 km/h 53.2% 0.0 mm
19:29 13 °C 4 °C 1018.0 hPa SSO 6.9 km/h 19 km/h 54.5% 0.0 mm
19:34 12.9 °C 4.3 °C 1018.0 hPa SSO 9.1 km/h 19.3 km/h 55.6% 0.0 mm
19:39 12.9 °C 4.5 °C 1018.1 hPa SSO 11.1 km/h 22.5 km/h 57% 0.0 mm
19:44 12.8 °C 4.7 °C 1018.1 hPa SO 11.7 km/h 22.5 km/h 57.9% 0.0 mm
19:49 12.7 °C 4.8 °C 1018.1 hPa SO 12.2 km/h 19.3 km/h 58.4% 0.0 mm
19:54 12.7 °C 5 °C 1018.5 hPa SO 10.4 km/h 16.4 km/h 59.4% 0.0 mm
19:59 12.6 °C 5.1 °C 1018.5 hPa SO 8.7 km/h 16.1 km/h 60.4% 0.0 mm
20:04 12.4 °C 5.3 °C 1018.5 hPa SO 8.1 km/h 14.5 km/h 61.6% 0.0 mm
20:09 12.4 °C 5.6 °C 1018.5 hPa SO 7.6 km/h 19 km/h 63% 0.0 mm
20:14 12.4 °C 5.8 °C 1018.5 hPa SSO 8 km/h 19.3 km/h 64% 0.0 mm
20:19 12.4 °C 5.9 °C 1018.5 hPa Sur 8.4 km/h 12.9 km/h 64.9% 0.0 mm
20:24 12.3 °C 5.7 °C 1018.5 hPa SSE 7.1 km/h 11.3 km/h 64% 0.0 mm
20:29 12.2 °C 5.8 °C 1018.5 hPa SSO 5.8 km/h 9.5 km/h 64.9% 0.0 mm
20:34 12.2 °C 6.1 °C 1018.5 hPa SSO 5.8 km/h 11.9 km/h 66.2% 0.0 mm
20:39 12.1 °C 6.2 °C 1018.6 hPa SSO 5.8 km/h 11.3 km/h 67% 0.0 mm
20:44 12 °C 6.3 °C 1018.6 hPa SSO 6.4 km/h 11.1 km/h 67.9% 0.0 mm
20:49 11.9 °C 6.2 °C 1018.6 hPa SSO 6.9 km/h 11.9 km/h 68% 0.0 mm
20:54 11.8 °C 6.3 °C 1018.7 hPa SSO 7.3 km/h 11.3 km/h 69% 0.0 mm
20:59 11.8 °C 6.3 °C 1018.7 hPa SSO 7.6 km/h 12.2 km/h 69% 0.0 mm
21:04 11.7 °C 6.4 °C 1018.7 hPa Sur 7.6 km/h 12.9 km/h 69.8% 0.0 mm
21:09 11.7 °C 6.4 °C 1018.7 hPa SSO 7.6 km/h 11.3 km/h 70% 0.0 mm
21:14 11.7 °C 6.5 °C 1018.7 hPa SSO 7.2 km/h 13 km/h 70.9% 0.0 mm
21:19 11.6 °C 6.6 °C 1018.7 hPa SO 6.9 km/h 13.7 km/h 71.4% 0.0 mm
21:24 11.6 °C 6.7 °C 1018.7 hPa SO 7.3 km/h 14.5 km/h 72% 0.0 mm
21:29 11.5 °C 6.7 °C 1018.5 hPa SO 7.6 km/h 11.3 km/h 72.5% 0.0 mm
21:34 11.4 °C 6.7 °C 1018.5 hPa SO 6.3 km/h 9.7 km/h 73% 0.0 mm
21:39 11.4 °C 6.7 °C 1018.7 hPa OSO 5 km/h 8 km/h 73% 0.0 mm
21:44 11.4 °C 6.9 °C 1018.7 hPa SO 4.4 km/h 8 km/h 73.7% 0.0 mm
21:49 11.3 °C 6.9 °C 1018.7 hPa OSO 3.9 km/h 12.2 km/h 74% 0.0 mm
21:54 11.4 °C 7.1 °C 1018.8 hPa SO 5.1 km/h 15.6 km/h 74.9% 0.0 mm
21:59 11.4 °C 7.1 °C 1018.8 hPa SO 6.5 km/h 16.1 km/h 75% 0.0 mm
22:04 11.3 °C 7 °C 1018.8 hPa SSO 6.5 km/h 11.3 km/h 75% 0.0 mm
22:09 11.3 °C 6.9 °C 1018.9 hPa SSO 6.5 km/h 9.7 km/h 74.1% 0.0 mm
22:14 11.2 °C 6.8 °C 1018.9 hPa SSO 5.7 km/h 10.3 km/h 74.3% 0.0 mm
22:19 11.2 °C 6.9 °C 1018.9 hPa SSE 5 km/h 11.3 km/h 75% 0.0 mm
22:24 11 °C 6.8 °C 1019.0 hPa Sur 6 km/h 11.9 km/h 75.3% 0.0 mm
22:29 10.8 °C 6.7 °C 1019.0 hPa SSO 6.9 km/h 13 km/h 76% 0.0 mm
22:34 10.7 °C 6.8 °C 1019.0 hPa Sur 6.9 km/h 12.9 km/h 76.8% 0.0 mm
22:39 10.7 °C 6.8 °C 1019.0 hPa Sur 6.9 km/h 11.9 km/h 77% 0.0 mm
22:44 10.6 °C 6.8 °C 1019.0 hPa Sur 6.9 km/h 11.3 km/h 77.1% 0.0 mm
22:49 10.6 °C 6.8 °C 1019.0 hPa SSE 6.9 km/h 9.7 km/h 77.6% 0.0 mm
22:54 10.4 °C 6.7 °C 1019.0 hPa SSE 6.4 km/h 9.5 km/h 77.9% 0.0 mm
22:59 10.2 °C 6.7 °C 1019.0 hPa SSO 5.8 km/h 11.9 km/h 78.6% 0.0 mm
23:04 10.2 °C 6.7 °C 1019.0 hPa SSO 6.1 km/h 11.9 km/h 79% 0.0 mm
23:09 10.3 °C 6.8 °C 1019.0 hPa SSO 6.5 km/h 11.3 km/h 79% 0.0 mm
23:14 10.3 °C 6.8 °C 1018.9 hPa SSO 6.7 km/h 11.3 km/h 79% 0.0 mm
23:19 10.3 °C 6.8 °C 1018.9 hPa SSO 6.9 km/h 9.7 km/h 79% 0.0 mm
23:24 10.2 °C 6.6 °C 1018.9 hPa SSO 6.4 km/h 8 km/h 78% 0.0 mm
23:29 10.2 °C 6.6 °C 1018.7 hPa SO 5.8 km/h 8 km/h 78% 0.0 mm
23:34 10.2 °C 6.6 °C 1018.7 hPa SO 5.2 km/h 8 km/h 78% 0.0 mm
23:39 10.2 °C 6.5 °C 1018.7 hPa SSO 4.7 km/h 8 km/h 78% 0.0 mm
23:44 10.1 °C 6.4 °C 1018.6 hPa SSO 4.7 km/h 8 km/h 78% 0.0 mm
23:49 10 °C 6.3 °C 1018.6 hPa Sur 4.7 km/h 8.4 km/h 78% 0.0 mm
23:54 9.9 °C 6.2 °C 1018.6 hPa Sur 4.8 km/h 9.5 km/h 78% 0.0 mm
23:59 9.8 °C 6.2 °C 1018.5 hPa SSO 5 km/h 11.1 km/h 78% 0.0 mm
Murcia-Puente Tocinos, España
Compliments of Weather Underground - 3 mb

La estación de MeteoMurcia.com, publica sus datos en los siguientes proyectos:

Weather Underground PWS IMURCIAP2 Meteoclimatic www.awekas.at

W3Counter
Web Analytics